Time;durP1;ratioP1;P1;durP2;ratioP2;P2;SDS_P1;SDS_P2;PMS_P1;PMS_P2;Temp;Humidity;BMP_temperature;BMP_pressure;BME280_temperature;BME280_humidity;BME280_pressure;Samples;Min_cycle;Max_cycle;Signal;HPM_P1;HPM_P2
2023/02/06 00:01:39;;;;;;;90.72;43.83;;;;;;;-7.09;78.71;102531.02;1693656;83;25624;-44
2023/02/06 00:04:07;;;;;;;94.40;44.63;;;;;;;-7.08;78.68;102531.36;1693659;83;26084;-45
2023/02/06 00:06:34;;;;;;;104.85;47.90;;;;;;;-7.09;78.90;102522.64;1693681;84;25563;-44
2023/02/06 00:09:04;;;;;;;100.12;45.23;;;;;;;-7.06;78.93;102517.11;1693543;84;27497;-45
2023/02/06 00:11:31;;;;;;;89.55;42.10;;;;;;;-7.06;78.91;102515.80;1693613;84;25619;-46
2023/02/06 00:13:58;;;;;;;97.33;42.62;;;;;;;-7.09;79.00;102506.86;1693822;84;25405;-45
2023/02/06 00:16:29;;;;;;;90.38;41.00;;;;;;;-7.05;79.05;102517.93;1693598;83;25581;-46
2023/02/06 00:18:58;;;;;;;85.32;37.40;;;;;;;-7.06;79.04;102515.80;1693788;84;25574;-45
2023/02/06 00:21:27;;;;;;;;;;;;;;;-7.04;78.69;102524.87;1696213;83;27483;-45
2023/02/06 00:23:58;;;;;;;80.00;34.05;;;;;;;-7.03;78.62;102518.62;1693588;84;25603;-47
2023/02/06 00:26:26;;;;;;;74.53;34.63;;;;;;;-7.03;78.69;102521.25;1693739;84;25454;-46
2023/02/06 00:28:53;;;;;;;79.80;34.75;;;;;;;-7.05;78.79;102523.19;1675545;84;25668;-45
2023/02/06 00:31:19;;;;;;;73.87;33.90;;;;;;;-7.06;78.66;102524.18;1693645;84;25482;-46
2023/02/06 00:33:46;;;;;;;80.40;35.33;;;;;;;-7.03;79.17;102522.56;1693660;83;27488;-45
2023/02/06 00:36:14;;;;;;;76.72;35.73;;;;;;;-7.03;79.31;102523.88;1693654;83;25453;-46
2023/02/06 00:38:40;;;;;;;74.50;35.83;;;;;;;-7.03;79.27;102526.52;1693613;83;25162;-45
2023/02/06 00:41:06;;;;;;;82.80;36.98;;;;;;;-7.04;79.05;102523.06;1693588;84;25625;-46
2023/02/06 00:43:33;;;;;;;82.60;36.38;;;;;;;-7.04;78.74;102519.11;1693627;83;25455;-48
2023/02/06 00:46:01;;;;;;;74.87;35.40;;;;;;;-7.03;78.82;102512.89;1693688;84;28242;-47
2023/02/06 00:48:28;;;;;;;83.60;38.25;;;;;;;-7.03;78.75;102514.20;1693600;83;25576;-46
2023/02/06 00:50:55;;;;;;;82.60;37.75;;;;;;;-7.04;78.26;102511.22;1693637;83;25378;-47
2023/02/06 00:53:22;;;;;;;79.30;37.53;;;;;;;-7.05;78.01;102514.80;1693549;83;25629;-47
2023/02/06 00:55:48;;;;;;;79.10;35.92;;;;;;;-7.04;78.30;102521.74;1693682;84;25471;-48
2023/02/06 00:58:14;;;;;;;89.28;38.13;;;;;;;-7.04;78.36;102513.03;1693666;84;27351;-47
2023/02/06 01:00:41;;;;;;;85.40;36.88;;;;;;;-7.04;78.62;102513.84;1693672;83;25603;-45
2023/02/06 01:03:07;;;;;;;83.58;38.90;;;;;;;-7.04;78.92;102517.80;1693733;84;25576;-47
2023/02/06 01:05:34;;;;;;;90.55;38.90;;;;;;;-7.03;79.24;102516.84;1693689;83;25692;-48
2023/02/06 01:08:00;;;;;;;101.78;42.83;;;;;;;-7.02;79.34;102515.03;1693693;83;25607;-44
2023/02/06 01:10:28;;;;;;;99.10;44.00;;;;;;;-6.98;79.51;102508.51;1692865;84;28080;-45
2023/02/06 01:12:54;;;;;;;108.78;45.35;;;;;;;-6.96;79.61;102503.47;1692495;84;25864;-45
2023/02/06 01:15:21;;;;;;;122.28;49.23;;;;;;;-6.93;79.63;102494.45;1692631;84;25585;-47
2023/02/06 01:17:47;;;;;;;121.02;52.93;;;;;;;-6.90;79.57;102498.13;1692560;84;25557;-47
2023/02/06 01:20:14;;;;;;;155.35;65.80;;;;;;;-6.87;79.60;102501.80;1692740;84;25460;-47
2023/02/06 01:22:41;;;;;;;155.20;67.05;;;;;;;-6.85;79.25;102501.66;1692600;84;27411;-45
2023/02/06 01:25:09;;;;;;;123.65;53.28;;;;;;;-6.82;79.37;102504.84;1692551;84;25526;-44
2023/02/06 01:27:37;;;;;;;95.38;45.30;;;;;;;-6.83;79.45;102500.54;1692546;84;25406;-46
2023/02/06 01:30:07;;;;;;;98.30;44.50;;;;;;;-6.80;79.29;102503.39;1692540;84;25605;-46
2023/02/06 01:32:40;;;;;;;90.45;37.93;;;;;;;-6.80;79.30;102506.84;1692593;84;25572;-46
2023/02/06 01:35:11;;;;;;;83.55;36.50;;;;;;;-6.80;78.75;102500.27;1692612;84;27459;-46
2023/02/06 01:37:39;;;;;;;85.40;37.05;;;;;;;-6.79;78.76;102499.31;1698313;84;25581;-46
2023/02/06 01:40:13;;;;;;;84.83;37.70;;;;;;;-6.79;78.75;102501.94;1692837;84;25489;-46
2023/02/06 01:42:43;;;;;;;90.92;37.00;;;;;;;-6.80;79.00;102486.28;1692561;84;25851;-46
2023/02/06 01:45:27;;;;;;;;;;;;;;;-6.78;78.97;102490.42;1695139;84;25470;-46
2023/02/06 01:48:00;;;;;;;81.67;35.85;;;;;;;-6.80;78.68;102477.89;1687543;84;27174;-46
2023/02/06 01:50:30;;;;;;;85.95;36.15;;;;;;;-6.81;78.81;102489.88;1692534;84;25398;-46
2023/02/06 01:52:56;;;;;;;78.37;34.10;;;;;;;-6.82;78.93;102486.92;1692772;84;25599;-46
2023/02/06 01:55:23;;;;;;;89.92;37.00;;;;;;;-6.85;79.04;102480.61;1692760;84;25403;-45
2023/02/06 01:57:51;;;;;;;104.00;42.05;;;;;;;-6.86;79.06;102486.38;1692694;84;25401;-45
2023/02/06 02:00:21;;;;;;;100.92;44.58;;;;;;;-6.89;79.07;102472.17;1692832;84;27409;-46
2023/02/06 02:02:49;;;;;;;;;;;;;;;-6.90;78.88;102470.99;1696768;84;25701;-45
2023/02/06 02:05:18;;;;;;;90.12;40.00;;;;;;;-6.92;79.03;102471.63;1692687;84;25653;-46
2023/02/06 02:07:59;;;;;;;92.97;39.65;;;;;;;-6.96;79.20;102478.97;1698485;84;25429;-47
2023/02/06 02:10:24;;;;;;;95.60;41.53;;;;;;;-6.96;79.14;102478.97;1695673;84;25446;-48
2023/02/06 02:12:51;;;;;;;96.55;42.60;;;;;;;-6.97;79.53;102479.92;1699913;84;27415;-49
2023/02/06 02:15:23;;;;;;;98.75;42.13;;;;;;;-6.98;79.52;102479.56;1670092;84;25637;-48
2023/02/06 02:18:04;;;;;;;92.80;43.70;;;;;;;-6.97;79.63;102483.87;1699843;84;25534;-47
2023/02/06 02:21:01;;;;;;;101.53;43.52;;;;;;;-6.98;79.67;102476.47;1665310;85;25546;-46
2023/02/06 02:23:50;;;;;;;114.47;51.18;;;;;;;-6.98;79.58;102477.79;1665482;85;25566;-46
2023/02/06 02:26:57;;;;;;;112.50;48.78;;;;;;;-6.98;79.57;102472.53;1664089;86;28435;-47
2023/02/06 02:29:54;;;;;;;111.60;47.75;;;;;;;-6.97;79.65;102474.17;1665464;85;25806;-46
2023/02/06 02:32:35;;;;;;;106.87;46.18;;;;;;;-6.95;79.74;102472.72;1664600;86;25723;-44
2023/02/06 02:35:28;;;;;;;89.77;42.70;;;;;;;-6.95;79.88;102477.98;1665413;86;26250;-45
2023/02/06 02:38:26;;;;;;;97.53;42.20;;;;;;;-6.96;79.91;102482.42;1664934;86;25558;-47
2023/02/06 02:41:06;;;;;;;89.58;38.20;;;;;;;-6.95;79.96;102480.61;1642408;86;28227;-46
2023/02/06 02:43:58;;;;;;;96.63;40.28;;;;;;;-6.94;79.76;102484.91;1664590;86;26008;-48
2023/02/06 02:46:42;;;;;;;89.80;37.42;;;;;;;-6.93;79.70;102487.05;1665418;86;25564;-45
2023/02/06 02:49:13;;;;;;;91.25;37.88;;;;;;;-6.93;79.46;102493.63;1665390;86;25722;-46
2023/02/06 02:51:42;;;;;;;85.62;39.78;;;;;;;-6.93;79.69;102495.77;1665107;86;25608;-46
2023/02/06 02:54:10;;;;;;;70.78;30.43;;;;;;;-6.93;79.75;102504.16;1665485;86;27408;-45
2023/02/06 02:56:39;;;;;;;91.08;39.00;;;;;;;-6.93;79.66;102504.98;1665284;86;25662;-47
2023/02/06 02:59:22;;;;;;;85.77;38.60;;;;;;;-6.92;79.75;102511.09;1698838;84;25773;-46
2023/02/06 03:01:58;;;;;;;87.55;40.05;;;;;;;-6.95;79.88;102506.92;1699639;84;25454;-46
2023/02/06 03:04:33;;;;;;;84.42;37.83;;;;;;;-6.94;79.63;102499.39;1699504;84;25396;-45
2023/02/06 03:07:21;;;;;;;84.42;36.45;;;;;;;-6.95;79.72;102502.52;1694621;84;27418;-47
2023/02/06 03:10:10;;;;;;;87.17;34.55;;;;;;;-6.93;79.39;102493.63;1633254;87;25772;-47
2023/02/06 03:13:11;;;;;;;80.53;35.55;;;;;;;-6.93;79.51;102498.40;1622910;88;25672;-46
2023/02/06 03:15:45;;;;;;;78.12;34.65;;;;;;;-6.95;79.43;102496.40;1623203;88;25563;-46
2023/02/06 03:18:17;;;;;;;92.95;35.60;;;;;;;-6.95;79.39;102488.50;1601721;88;25528;-46
2023/02/06 03:20:47;;;;;;;78.62;35.33;;;;;;;-6.95;79.28;102487.19;1623223;88;27392;-46
2023/02/06 03:23:23;;;;;;;75.08;32.70;;;;;;;-6.97;79.31;102487.81;1623178;88;25716;-46
2023/02/06 03:25:55;;;;;;;77.60;31.90;;;;;;;-7.01;79.11;102485.13;1620633;88;25467;-45
2023/02/06 03:28:27;;;;;;;83.10;32.45;;;;;;;-7.02;79.38;102482.14;1623183;88;25594;-47
2023/02/06 03:30:59;;;;;;;73.75;30.72;;;;;;;-7.05;79.37;102479.78;1623220;88;25619;-45
2023/02/06 03:33:33;;;;;;;74.95;30.77;;;;;;;-7.08;79.43;102485.31;1623177;88;27386;-45
2023/02/06 03:35:59;;;;;;;74.80;28.57;;;;;;;-7.10;79.34;102482.00;1623208;88;25495;-44
2023/02/06 03:38:27;;;;;;;73.40;29.48;;;;;;;-7.13;79.34;102485.75;1601163;88;25613;-46
2023/02/06 03:40:57;;;;;;;72.00;28.73;;;;;;;-7.17;79.15;102481.72;1623196;88;25684;-46
2023/02/06 03:43:27;;;;;;;68.20;29.60;;;;;;;-7.20;79.33;102479.36;1623244;88;25482;-46
2023/02/06 03:45:59;;;;;;;76.95;31.50;;;;;;;-7.24;79.22;102477.48;1624460;84;27385;-46
2023/02/06 03:48:36;;;;;;;73.40;28.90;;;;;;;-7.28;79.09;102476.61;1690612;84;27273;-45
2023/02/06 03:51:08;;;;;;;71.62;29.50;;;;;;;-7.34;79.06;102483.23;1692110;84;25571;-46
2023/02/06 03:53:37;;;;;;;73.85;27.87;;;;;;;-7.38;79.05;102476.09;1691536;84;25549;-45
2023/02/06 03:56:12;;;;;;;70.65;29.42;;;;;;;-7.42;79.40;102470.78;1692068;84;25433;-46
2023/02/06 03:58:40;;;;;;;69.47;27.93;;;;;;;-7.45;79.46;102474.16;1692083;84;27478;-46
2023/02/06 04:01:09;;;;;;;66.65;27.15;;;;;;;-7.48;79.44;102483.63;1691973;84;25637;-46
2023/02/06 04:03:35;;;;;;;69.55;29.25;;;;;;;-7.52;79.59;102484.39;1692215;84;25570;-45
2023/02/06 04:06:03;;;;;;;73.30;26.95;;;;;;;-7.56;79.40;102482.98;1692000;84;25458;-45
2023/02/06 04:08:32;;;;;;;67.87;29.27;;;;;;;-7.59;79.17;102482.78;1692280;84;25376;-46
2023/02/06 04:10:58;;;;;;;74.42;27.45;;;;;;;-7.61;79.17;102482.09;1694194;84;27682;-46
2023/02/06 04:13:26;;;;;;;73.62;28.27;;;;;;;-7.64;79.33;102482.36;1704638;84;25389;-48
2023/02/06 04:15:55;;;;;;;49.67;19.83;;;;;;;-7.68;79.41;102487.52;1705022;84;25631;-48
2023/02/06 04:18:23;;;;;;;76.90;28.75;;;;;;;-7.73;79.43;102487.09;1704760;84;25433;-47
2023/02/06 04:20:51;;;;;;;67.95;28.05;;;;;;;-7.76;79.28;102490.02;1704869;84;25452;-48
2023/02/06 04:23:20;;;;;;;69.32;28.05;;;;;;;-7.81;79.10;102485.14;1704931;84;27337;-47
2023/02/06 04:25:47;;;;;;;71.90;27.90;;;;;;;-7.85;79.13;102479.80;1704729;84;25486;-50
2023/02/06 04:28:16;;;;;;;68.52;27.42;;;;;;;-7.90;79.10;102481.53;1704833;84;25670;-50
2023/02/06 04:30:42;;;;;;;66.87;26.33;;;;;;;-7.95;79.24;102483.72;1704815;84;25409;-47
2023/02/06 04:33:08;;;;;;;73.02;25.37;;;;;;;-8.00;78.88;102481.98;1704865;84;25555;-45
2023/02/06 04:35:37;;;;;;;71.65;27.27;;;;;;;-8.05;78.54;102487.25;1704912;84;26787;-45
2023/02/06 04:38:03;;;;;;;;;;;;;;;-8.10;78.64;102487.18;1707245;84;25543;-45
2023/02/06 04:40:30;;;;;;;64.80;24.73;;;;;;;-8.14;78.31;102484.48;1704777;84;25538;-45
2023/02/06 04:42:56;;;;;;;69.50;24.35;;;;;;;-8.18;78.49;102484.37;1704761;84;25457;-46
2023/02/06 04:45:22;;;;;;;65.00;25.77;;;;;;;-8.23;78.74;102489.19;1704790;84;25524;-45
2023/02/06 04:47:49;;;;;;;60.15;26.93;;;;;;;-8.29;78.35;102488.39;1704755;84;27402;-45
2023/02/06 04:50:18;;;;;;;76.00;31.52;;;;;;;-8.33;78.81;102482.57;1676356;84;25432;-45
2023/02/06 04:52:46;;;;;;;79.32;32.83;;;;;;;-8.35;78.77;102485.81;1704911;84;25391;-46
2023/02/06 04:55:12;;;;;;;75.50;31.48;;;;;;;-8.38;78.75;102472.94;1704875;84;25576;-45
2023/02/06 04:57:42;;;;;;;67.72;31.27;;;;;;;-8.42;78.92;102474.17;1704819;84;25575;-46
2023/02/06 05:00:13;;;;;;;78.15;34.92;;;;;;;-8.48;78.82;102478.19;1704761;84;27284;-46
2023/02/06 05:02:39;;;;;;;76.37;33.42;;;;;;;-8.52;78.90;102474.63;1677289;84;25437;-48
2023/02/06 05:05:09;;;;;;;81.67;34.23;;;;;;;-8.54;79.03;102470.82;1704821;84;25547;-45
2023/02/06 05:07:37;;;;;;;68.87;33.18;;;;;;;-8.59;78.69;102471.69;1704814;84;25672;-45
2023/02/06 05:10:08;;;;;;;74.77;33.65;;;;;;;-8.62;78.81;102481.62;1704383;84;25377;-46
2023/02/06 05:12:37;;;;;;;80.22;35.05;;;;;;;-8.65;78.75;102479.61;1692515;84;27340;-46
2023/02/06 05:15:07;;;;;;;74.42;32.93;;;;;;;-8.68;79.14;102485.11;1692512;84;29867;-45
2023/02/06 05:17:36;;;;;;;76.37;32.60;;;;;;;-8.67;79.13;102485.92;1692558;84;25466;-45
2023/02/06 05:20:07;;;;;;;78.90;32.78;;;;;;;-8.67;79.06;102485.92;1692587;84;25474;-45
2023/02/06 05:22:33;;;;;;;77.82;33.20;;;;;;;-8.69;78.95;102492.61;1692558;84;25600;-46
2023/02/06 05:24:59;;;;;;;80.87;34.15;;;;;;;-8.69;78.79;102495.23;1692542;84;27392;-45
2023/02/06 05:27:27;;;;;;;84.62;33.90;;;;;;;-8.70;78.94;102500.16;1692520;84;25419;-45
2023/02/06 05:29:54;;;;;;;75.32;32.90;;;;;;;-8.71;78.98;102502.90;1692663;84;25585;-46
2023/02/06 05:32:20;;;;;;;78.07;33.90;;;;;;;-8.74;78.78;102500.52;1692546;84;25534;-46
2023/02/06 05:34:46;;;;;;;78.67;34.95;;;;;;;-8.75;78.94;102506.72;1692682;84;25601;-47
2023/02/06 05:37:12;;;;;;;75.30;33.78;;;;;;;-8.77;78.89;102506.84;1692619;84;27509;-47
2023/02/06 05:39:39;;;;;;;81.82;32.65;;;;;;;-8.78;78.93;102506.97;1692492;84;27259;-46
2023/02/06 05:42:05;;;;;;;71.67;31.50;;;;;;;-8.78;78.60;102503.03;1692636;84;25465;-45
2023/02/06 05:44:31;;;;;;;79.53;34.45;;;;;;;-8.77;78.56;102500.77;1692586;84;25604;-46
2023/02/06 05:46:57;;;;;;;77.30;32.25;;;;;;;-8.78;78.84;102504.34;1692627;84;25621;-46
2023/02/06 05:49:23;;;;;;;77.42;33.25;;;;;;;-8.79;78.90;102504.01;1692574;84;27344;-46
2023/02/06 05:51:50;;;;;;;72.97;31.60;;;;;;;-8.82;78.82;102502.45;1692476;84;25647;-47
2023/02/06 05:54:17;;;;;;;75.52;33.33;;;;;;;-8.85;78.78;102503.56;1694207;84;25394;-46
2023/02/06 05:56:46;;;;;;;72.42;32.08;;;;;;;-8.86;78.84;102503.20;1692624;84;25471;-46
2023/02/06 05:59:12;;;;;;;67.75;33.08;;;;;;;-8.87;78.91;102505.48;1692643;84;25441;-45
2023/02/06 06:01:38;;;;;;;74.62;33.65;;;;;;;-8.86;78.86;102499.75;1692623;84;27385;-44
2023/02/06 06:04:06;;;;;;;76.05;33.28;;;;;;;-8.85;78.85;102497.48;1692495;84;25394;-45
2023/02/06 06:06:35;;;;;;;80.22;33.75;;;;;;;-8.85;78.95;102502.25;1692553;84;25516;-46
2023/02/06 06:09:01;;;;;;;73.12;33.23;;;;;;;-8.83;79.08;102501.63;1692592;84;26198;-47
2023/02/06 06:11:32;;;;;;;83.97;34.80;;;;;;;-8.84;79.28;102506.52;1692473;84;25456;-46
2023/02/06 06:14:00;;;;;;;75.87;33.92;;;;;;;-8.82;79.39;102502.45;1694281;84;27885;-47
2023/02/06 06:16:27;;;;;;;78.45;35.60;;;;;;;-8.80;79.54;102495.78;1698372;84;25587;-46
2023/02/06 06:18:54;;;;;;;79.70;35.63;;;;;;;-8.79;79.42;102496.96;1692560;84;25545;-45
2023/02/06 06:21:23;;;;;;;83.17;36.30;;;;;;;-8.74;79.55;102499.22;1692598;84;25968;-48
2023/02/06 06:23:50;;;;;;;81.85;34.85;;;;;;;-8.72;79.77;102494.66;1692642;84;25575;-46
2023/02/06 06:26:18;;;;;;;85.53;37.03;;;;;;;-8.69;79.73;102480.81;1692592;84;27345;-46
2023/02/06 06:28:46;;;;;;;83.72;36.63;;;;;;;-8.65;79.71;102496.66;1692470;84;25373;-46
2023/02/06 06:31:12;;;;;;;76.02;34.50;;;;;;;-8.60;80.12;102488.88;1692613;84;25455;-47
2023/02/06 06:33:41;;;;;;;81.55;35.63;;;;;;;-8.57;80.06;102496.00;1692537;84;25466;-47
2023/02/06 06:36:12;;;;;;;74.47;34.20;;;;;;;-8.51;80.25;102492.88;1692748;84;25622;-46
2023/02/06 06:38:41;;;;;;;74.03;35.78;;;;;;;-8.45;80.42;102497.59;1692655;84;27440;-46
2023/02/06 06:41:07;;;;;;;88.65;36.28;;;;;;;-8.37;80.48;102500.87;1692664;84;25724;-51
2023/02/06 06:43:36;;;;;;;79.40;36.23;;;;;;;-8.31;80.56;102506.07;1692616;84;25736;-51
2023/02/06 06:46:05;;;;;;;83.67;37.40;;;;;;;-8.22;80.79;102504.00;1692679;84;25556;-48
2023/02/06 06:48:35;;;;;;;89.72;37.38;;;;;;;-8.13;80.90;102503.69;1692772;84;25554;-45
2023/02/06 06:51:02;;;;;;;85.67;37.83;;;;;;;-8.04;80.89;102508.14;1692647;84;27344;-46
2023/02/06 06:53:32;;;;;;;90.77;39.38;;;;;;;-7.95;81.00;102511.77;1692764;84;25405;-46
2023/02/06 06:56:06;;;;;;;94.03;42.20;;;;;;;-7.85;81.22;102514.44;1692750;84;25414;-45
2023/02/06 06:58:33;;;;;;;94.25;41.45;;;;;;;-7.75;81.51;102516.62;1692607;84;25572;-47
2023/02/06 07:01:00;;;;;;;86.30;40.50;;;;;;;-7.62;81.71;102518.53;1692139;84;25830;-45
2023/02/06 07:03:26;;;;;;;93.03;41.85;;;;;;;-7.49;82.14;102525.34;1692548;84;27421;-46
2023/02/06 07:05:54;;;;;;;93.52;40.75;;;;;;;-7.31;82.40;102527.66;1692519;84;25670;-47
2023/02/06 07:08:20;;;;;;;88.87;40.65;;;;;;;-7.16;82.51;102532.05;1692607;84;25624;-47
2023/02/06 07:10:48;;;;;;;90.65;42.43;;;;;;;-7.00;82.51;102528.88;1692555;84;25646;-47
2023/02/06 07:13:16;;;;;;;96.50;43.02;;;;;;;-6.83;83.00;102540.02;1692606;84;25566;-46
2023/02/06 07:15:44;;;;;;;94.83;43.17;;;;;;;-6.68;82.73;102539.12;1692690;84;28009;-47
2023/02/06 07:18:11;;;;;;;96.35;44.25;;;;;;;-6.51;82.77;102542.84;1692429;84;25577;-46
2023/02/06 07:20:37;;;;;;;99.77;44.45;;;;;;;-6.33;82.93;102544.75;1692624;84;25451;-46
2023/02/06 07:23:07;;;;;;;96.90;43.17;;;;;;;-6.19;83.08;102544.32;1692501;84;25597;-45
2023/02/06 07:25:33;;;;;;;103.95;45.52;;;;;;;-6.06;82.50;102541.36;1692626;84;25643;-46
2023/02/06 07:27:59;;;;;;;99.17;45.90;;;;;;;-5.88;82.83;102546.69;1692655;84;27330;-47
2023/02/06 07:30:26;;;;;;;99.80;45.83;;;;;;;-5.72;82.37;102549.55;1692506;84;25552;-45
2023/02/06 07:32:52;;;;;;;104.87;46.30;;;;;;;-5.57;82.60;102540.64;1692627;84;25656;-47
2023/02/06 07:35:18;;;;;;;109.05;48.38;;;;;;;-5.39;82.90;102546.47;1692468;84;25572;-46
2023/02/06 07:37:45;;;;;;;111.42;47.45;;;;;;;-5.09;83.82;102549.23;1692621;84;25644;-47
2023/02/06 07:40:14;;;;;;;102.60;46.42;;;;;;;-4.84;84.25;102542.89;1692512;84;29675;-46
2023/02/06 07:42:42;;;;;;;106.00;47.93;;;;;;;-4.44;85.54;102546.83;1670966;84;25843;-48
2023/02/06 07:45:11;;;;;;;111.50;48.95;;;;;;;-4.04;85.13;102537.02;1692634;84;25572;-46
2023/02/06 07:47:37;;;;;;;111.15;50.52;;;;;;;-3.68;85.23;102538.19;1670789;84;25593;-46
2023/02/06 07:50:06;;;;;;;109.20;47.50;;;;;;;-3.22;85.70;102533.39;1692584;84;25453;-46
2023/02/06 07:52:32;;;;;;;103.32;46.83;;;;;;;-2.77;84.55;102531.80;1692726;84;31233;-46
2023/02/06 07:54:59;;;;;;;107.03;47.78;;;;;;;-2.35;85.60;102526.78;1692467;84;25653;-50
2023/02/06 07:57:25;;;;;;;96.50;44.83;;;;;;;-1.86;84.71;102525.84;1692584;84;25672;-47
2023/02/06 07:59:53;;;;;;;97.17;44.20;;;;;;;-1.39;83.48;102531.11;1692440;84;25454;-47
2023/02/06 08:02:23;;;;;;;95.80;45.30;;;;;;;-0.99;82.36;102535.85;1692653;84;25454;-48
2023/02/06 08:04:50;;;;;;;94.20;44.48;;;;;;;-0.47;82.94;102534.27;1692583;84;28354;-47
2023/02/06 08:07:18;;;;;;;86.40;42.03;;;;;;;0.03;82.55;102526.61;1692494;84;25648;-47
2023/02/06 08:09:45;;;;;;;90.47;42.50;;;;;;;0.68;82.73;102523.64;1692654;84;25565;-47
2023/02/06 08:12:11;;;;;;;91.28;43.05;;;;;;;1.33;81.60;102526.81;1670760;84;25571;-46
2023/02/06 08:14:40;;;;;;;89.72;42.95;;;;;;;1.84;80.07;102520.74;1692577;84;25405;-47
2023/02/06 08:17:08;;;;;;;82.47;39.48;;;;;;;2.17;77.62;102525.95;1692675;84;27351;-49
2023/02/06 08:19:37;;;;;;;84.72;39.53;;;;;;;2.60;76.73;102533.73;1692489;84;25996;-48
2023/02/06 08:22:06;;;;;;;84.72;38.20;;;;;;;2.97;75.31;102533.72;1692731;84;25566;-48
2023/02/06 08:24:34;;;;;;;76.15;36.88;;;;;;;3.36;74.74;102531.30;1692651;84;25434;-48
2023/02/06 08:27:00;;;;;;;80.65;39.25;;;;;;;3.83;74.18;102535.27;1692557;84;25533;-48
2023/02/06 08:29:28;;;;;;;78.40;38.15;;;;;;;4.32;73.02;102528.55;1692566;84;27401;-48
2023/02/06 08:31:56;;;;;;;79.35;38.35;;;;;;;4.80;71.92;102536.17;1692536;84;25549;-49
2023/02/06 08:34:25;;;;;;;73.33;38.28;;;;;;;5.12;70.04;102536.69;1692646;84;25592;-47
2023/02/06 08:36:51;;;;;;;70.50;35.83;;;;;;;5.29;67.93;102542.34;1692626;84;25640;-48
2023/02/06 08:39:19;;;;;;;78.05;38.00;;;;;;;5.32;66.77;102541.38;1692637;84;25497;-49
2023/02/06 08:41:48;;;;;;;73.90;36.48;;;;;;;5.21;64.83;102534.03;1692527;84;27449;-51
2023/02/06 08:44:18;;;;;;;73.28;37.63;;;;;;;5.37;66.08;102542.08;1692686;84;25630;-49
2023/02/06 08:46:47;;;;;;;74.53;37.73;;;;;;;5.60;65.08;102535.59;1692670;84;32801;-49
2023/02/06 08:49:19;;;;;;;76.75;38.33;;;;;;;5.57;64.19;102543.27;1692498;84;25462;-49
2023/02/06 08:51:49;;;;;;;71.77;36.80;;;;;;;5.73;64.67;102541.87;1692645;84;25650;-49
2023/02/06 08:54:18;;;;;;;;;;;;;;;6.07;64.24;102538.36;1695096;84;27576;-49
2023/02/06 08:56:48;;;;;;;;;;;;;;;6.42;63.60;102537.73;1694958;84;25423;-50
2023/02/06 08:59:18;;;;;;;69.50;34.98;;;;;;;6.62;62.88;102539.64;1692676;84;25462;-49
2023/02/06 09:01:48;;;;;;;74.03;35.33;;;;;;;6.88;61.60;102536.31;1692583;84;25422;-49
2023/02/06 09:04:16;;;;;;;74.05;38.55;;;;;;;7.24;62.79;102534.53;1692675;84;25620;-49
2023/02/06 09:06:49;;;;;;;73.00;36.13;;;;;;;7.67;62.06;102540.12;1692810;84;27449;-48
2023/02/06 09:09:18;;;;;;;69.67;34.78;;;;;;;8.21;60.92;102534.56;1692519;84;25687;-49
2023/02/06 09:11:44;;;;;;;60.35;34.35;;;;;;;8.41;59.92;102532.79;1693018;84;25627;-51
2023/02/06 09:14:19;;;;;;;68.60;35.65;;;;;;;8.82;59.40;102530.92;1699794;84;25363;-50
2023/02/06 09:16:45;;;;;;;63.35;33.50;;;;;;;9.33;59.10;102528.25;1699839;84;25558;-50
2023/02/06 09:19:14;;;;;;;67.03;35.75;;;;;;;9.53;57.40;102528.59;1699779;84;29440;-54
2023/02/06 09:21:41;;;;;;;68.50;36.15;;;;;;;9.67;56.87;102538.52;1699864;84;33138;-49
2023/02/06 09:24:09;;;;;;;61.65;34.13;;;;;;;9.96;55.82;102538.91;1699829;84;25670;-50
2023/02/06 09:26:41;;;;;;;59.05;33.98;;;;;;;9.99;55.21;102541.92;1699826;84;25500;-51
2023/02/06 09:29:10;;;;;;;68.40;36.08;;;;;;;10.21;54.84;102536.53;1699902;84;25631;-49
2023/02/06 09:31:42;;;;;;;60.40;34.33;;;;;;;10.42;54.01;102544.41;1700070;84;27406;-49
2023/02/06 09:34:12;;;;;;;58.42;33.18;;;;;;;10.66;54.34;102541.42;1699713;84;25731;-49
2023/02/06 09:36:41;;;;;;;61.42;32.53;;;;;;;10.89;53.45;102539.48;1699824;84;25647;-50
2023/02/06 09:39:09;;;;;;;54.70;32.60;;;;;;;11.11;52.46;102533.45;1699918;84;25593;-49
2023/02/06 09:41:43;;;;;;;54.80;29.00;;;;;;;11.41;52.37;102530.72;1669994;84;25632;-49
2023/02/06 09:44:18;;;;;;;42.40;25.05;;;;;;;11.33;50.92;102537.97;1695603;84;27673;-52
2023/02/06 09:46:55;;;;;;;42.25;23.32;;;;;;;11.13;49.96;102541.31;1698277;84;25732;-49
2023/02/06 09:49:39;;;;;;;40.63;22.32;;;;;;;10.95;50.21;102536.56;1699838;84;25558;-49
2023/02/06 09:52:30;;;;;;;33.55;20.97;;;;;;;11.10;50.00;102547.24;1699792;84;26042;-51
2023/02/06 09:55:26;;;;;;;35.08;19.20;;;;;;;11.03;49.36;102546.94;1699842;84;25414;-49
2023/02/06 09:58:31;;;;;;;33.65;19.60;;;;;;;11.16;48.84;102544.87;1699726;84;27484;-48
2023/02/06 10:01:18;;;;;;;36.17;20.82;;;;;;;11.18;49.11;102539.45;1699646;84;25608;-50
2023/02/06 10:04:20;;;;;;;34.30;19.62;;;;;;;11.38;48.30;102533.39;1699543;84;25395;-49
2023/02/06 10:06:51;;;;;;;35.23;20.23;;;;;;;11.53;48.20;102533.24;1698459;84;25581;-49
2023/02/06 10:09:23;;;;;;;39.35;21.15;;;;;;;11.61;47.67;102532.73;1699874;84;25396;-50
2023/02/06 10:12:04;;;;;;;31.40;18.73;;;;;;;11.54;47.69;102528.08;1697867;84;27453;-49
2023/02/06 10:14:39;;;;;;;37.63;20.05;;;;;;;12.37;48.93;102534.78;1699865;84;25554;-48
2023/02/06 10:17:26;;;;;;;34.33;18.90;;;;;;;13.21;46.65;102525.94;1686870;84;25748;-48
2023/02/06 10:20:26;;;;;;;35.92;20.43;;;;;;;14.31;47.02;102531.14;1667244;86;25666;-47
2023/02/06 10:23:16;;;;;;;33.85;19.20;;;;;;;14.98;45.51;102527.22;1667420;85;25470;-45
2023/02/06 10:25:51;;;;;;;32.30;19.23;;;;;;;15.60;42.62;102520.68;1666806;86;27433;-47
2023/02/06 10:28:25;;;;;;;30.77;18.70;;;;;;;15.74;42.80;102516.70;1663482;86;25505;-47
2023/02/06 10:31:06;;;;;;;31.23;18.48;;;;;;;15.82;41.32;102517.47;1667381;86;25616;-47
2023/02/06 10:33:38;;;;;;;31.65;17.32;;;;;;;15.74;41.65;102509.89;1666248;86;25640;-47
2023/02/06 10:36:12;;;;;;;27.32;15.88;;;;;;;15.89;41.52;102517.13;1665816;86;25537;-47
2023/02/06 10:39:14;;;;;;;31.25;16.27;;;;;;;15.83;40.66;102516.34;1666012;86;27352;-47
2023/02/06 10:41:54;;;;;;;31.62;17.82;;;;;;;15.99;40.48;102513.71;1667275;86;25514;-46
2023/02/06 10:44:29;;;;;;;28.95;15.95;;;;;;;16.01;40.24;102507.97;1667395;86;25645;-47
2023/02/06 10:46:59;;;;;;;21.30;13.32;;;;;;;15.91;39.92;102509.45;1667417;86;25719;-47
2023/02/06 10:49:46;;;;;;;25.60;15.65;;;;;;;16.17;39.67;102508.57;1667544;86;25570;-47
2023/02/06 10:52:26;;;;;;;26.77;15.93;;;;;;;16.35;39.11;102494.69;1665792;86;27376;-45
2023/02/06 10:54:59;;;;;;;23.12;13.48;;;;;;;16.37;38.80;102493.28;1667288;86;27211;-45
2023/02/06 10:57:28;;;;;;;20.57;12.70;;;;;;;16.54;38.42;102498.22;1689822;84;25478;-42
2023/02/06 11:00:00;;;;;;;20.15;11.97;;;;;;;16.57;38.15;102503.10;1699872;84;25775;-46
2023/02/06 11:02:54;;;;;;;16.00;9.75;;;;;;;16.95;37.57;102502.27;1670099;84;25661;-45
2023/02/06 11:05:27;;;;;;;15.35;8.45;;;;;;;17.33;37.70;102494.79;1695789;84;27347;-44
2023/02/06 11:08:16;;;;;;;6.83;4.33;;;;;;;17.88;36.70;102497.34;1699567;84;25545;-46
2023/02/06 11:10:44;;;;;;;5.22;3.15;;;;;;;17.87;36.14;102495.14;1698957;84;25403;-44
2023/02/06 11:13:18;;;;;;;5.20;4.25;;;;;;;17.38;35.35;102498.53;1696809;84;25474;-45
2023/02/06 11:16:08;;;;;;;8.58;5.15;;;;;;;16.13;34.87;102500.72;1654191;86;25566;-45
2023/02/06 11:18:40;;;;;;;6.83;4.35;;;;;;;14.80;35.10;102496.04;1661089;86;27340;-45
2023/02/06 11:21:14;;;;;;;13.62;7.90;;;;;;;13.52;35.59;102499.59;1660865;85;25488;-43
2023/02/06 11:23:43;;;;;;;16.52;8.78;;;;;;;12.56;36.16;102514.74;1661056;86;25667;-44
2023/02/06 11:26:15;;;;;;;16.35;9.33;;;;;;;11.65;36.95;102509.45;1661111;86;25588;-44
2023/02/06 11:29:02;;;;;;;141.45;107.37;;;;;;;10.90;37.31;102505.38;1662627;86;25442;-44
2023/02/06 11:31:45;;;;;;;30.70;16.00;;;;;;;10.26;38.46;102507.38;1658059;86;27946;-44